sensor_id;sensor_type;location;lat;lon;timestamp;P1;durP1;ratioP1;P2;durP2;ratioP2
84168;SDS011;74295;50.146;8.794;2024-01-11T00:02:32;41.80;;;22.23;;
84168;SDS011;74295;50.146;8.794;2024-01-11T00:12:35;47.33;;;23.83;;
84168;SDS011;74295;50.146;8.794;2024-01-11T00:22:39;45.90;;;23.37;;
84168;SDS011;74295;50.146;8.794;2024-01-11T00:32:42;48.87;;;23.03;;
84168;SDS011;74295;50.146;8.794;2024-01-11T00:42:46;45.77;;;22.90;;
84168;SDS011;74295;50.146;8.794;2024-01-11T00:52:48;47.67;;;22.70;;
84168;SDS011;74295;50.146;8.794;2024-01-11T01:02:53;45.77;;;21.90;;
84168;SDS011;74295;50.146;8.794;2024-01-11T01:12:55;47.63;;;22.63;;
84168;SDS011;74295;50.146;8.794;2024-01-11T01:22:59;53.00;;;24.40;;
84168;SDS011;74295;50.146;8.794;2024-01-11T01:33:02;51.63;;;24.33;;
84168;SDS011;74295;50.146;8.794;2024-01-11T01:43:07;48.33;;;23.23;;
84168;SDS011;74295;50.146;8.794;2024-01-11T01:53:11;51.00;;;24.20;;
84168;SDS011;74295;50.146;8.794;2024-01-11T02:03:15;50.33;;;23.77;;
84168;SDS011;74295;50.146;8.794;2024-01-11T02:13:18;42.20;;;21.80;;
84168;SDS011;74295;50.146;8.794;2024-01-11T02:23:24;50.63;;;22.83;;
84168;SDS011;74295;50.146;8.794;2024-01-11T02:33:30;44.63;;;22.93;;
84168;SDS011;74295;50.146;8.794;2024-01-11T02:43:32;43.83;;;23.03;;
84168;SDS011;74295;50.146;8.794;2024-01-11T02:53:38;43.37;;;21.47;;
84168;SDS011;74295;50.146;8.794;2024-01-11T03:03:41;42.80;;;21.67;;
84168;SDS011;74295;50.146;8.794;2024-01-11T03:13:45;51.80;;;23.90;;
84168;SDS011;74295;50.146;8.794;2024-01-11T03:23:47;52.57;;;24.57;;
84168;SDS011;74295;50.146;8.794;2024-01-11T03:33:51;47.83;;;23.03;;
84168;SDS011;74295;50.146;8.794;2024-01-11T03:43:55;45.70;;;22.93;;
84168;SDS011;74295;50.146;8.794;2024-01-11T03:53:59;45.50;;;22.77;;
84168;SDS011;74295;50.146;8.794;2024-01-11T04:04:01;44.93;;;22.87;;
84168;SDS011;74295;50.146;8.794;2024-01-11T04:14:06;47.40;;;24.40;;
84168;SDS011;74295;50.146;8.794;2024-01-11T04:24:08;55.57;;;23.97;;
84168;SDS011;74295;50.146;8.794;2024-01-11T04:34:12;53.20;;;24.37;;
84168;SDS011;74295;50.146;8.794;2024-01-11T04:44:15;55.03;;;26.10;;
84168;SDS011;74295;50.146;8.794;2024-01-11T04:54:19;58.20;;;27.17;;
84168;SDS011;74295;50.146;8.794;2024-01-11T05:04:21;57.50;;;24.97;;
84168;SDS011;74295;50.146;8.794;2024-01-11T05:14:25;66.10;;;29.37;;
84168;SDS011;74295;50.146;8.794;2024-01-11T05:24:28;62.20;;;28.23;;
84168;SDS011;74295;50.146;8.794;2024-01-11T05:34:32;59.83;;;28.50;;
84168;SDS011;74295;50.146;8.794;2024-01-11T05:44:35;63.80;;;28.80;;
84168;SDS011;74295;50.146;8.794;2024-01-11T05:54:39;64.33;;;31.97;;
84168;SDS011;74295;50.146;8.794;2024-01-11T06:04:41;57.10;;;26.97;;
84168;SDS011;74295;50.146;8.794;2024-01-11T06:14:48;59.10;;;28.60;;
84168;SDS011;74295;50.146;8.794;2024-01-11T06:24:50;63.93;;;30.53;;
84168;SDS011;74295;50.146;8.794;2024-01-11T06:34:54;61.20;;;29.53;;
84168;SDS011;74295;50.146;8.794;2024-01-11T06:44:57;57.30;;;28.47;;
84168;SDS011;74295;50.146;8.794;2024-01-11T06:55:02;58.97;;;29.27;;
84168;SDS011;74295;50.146;8.794;2024-01-11T07:05:06;63.30;;;29.10;;
84168;SDS011;74295;50.146;8.794;2024-01-11T07:15:10;62.07;;;27.87;;
84168;SDS011;74295;50.146;8.794;2024-01-11T07:25:13;60.73;;;27.30;;
84168;SDS011;74295;50.146;8.794;2024-01-11T07:35:17;58.03;;;28.00;;
84168;SDS011;74295;50.146;8.794;2024-01-11T07:45:21;62.07;;;29.23;;
84168;SDS011;74295;50.146;8.794;2024-01-11T07:55:26;58.70;;;28.50;;
84168;SDS011;74295;50.146;8.794;2024-01-11T08:05:28;53.70;;;28.13;;
84168;SDS011;74295;50.146;8.794;2024-01-11T08:15:32;65.00;;;29.97;;
84168;SDS011;74295;50.146;8.794;2024-01-11T08:25:35;60.27;;;29.93;;
84168;SDS011;74295;50.146;8.794;2024-01-11T08:35:39;63.37;;;29.60;;
84168;SDS011;74295;50.146;8.794;2024-01-11T08:45:43;62.17;;;29.33;;
84168;SDS011;74295;50.146;8.794;2024-01-11T08:55:47;58.53;;;27.13;;
84168;SDS011;74295;50.146;8.794;2024-01-11T09:05:50;53.73;;;27.23;;
84168;SDS011;74295;50.146;8.794;2024-01-11T09:15:54;58.27;;;27.77;;
84168;SDS011;74295;50.146;8.794;2024-01-11T09:25:57;56.63;;;28.13;;
84168;SDS011;74295;50.146;8.794;2024-01-11T09:36:01;60.67;;;31.03;;
84168;SDS011;74295;50.146;8.794;2024-01-11T09:46:05;56.53;;;29.17;;
84168;SDS011;74295;50.146;8.794;2024-01-11T09:56:09;59.63;;;30.60;;
84168;SDS011;74295;50.146;8.794;2024-01-11T10:06:12;63.43;;;30.90;;
84168;SDS011;74295;50.146;8.794;2024-01-11T10:16:18;56.87;;;30.33;;
84168;SDS011;74295;50.146;8.794;2024-01-11T10:26:20;67.30;;;32.77;;
84168;SDS011;74295;50.146;8.794;2024-01-11T10:36:25;65.97;;;30.47;;
84168;SDS011;74295;50.146;8.794;2024-01-11T10:46:28;58.30;;;29.27;;
84168;SDS011;74295;50.146;8.794;2024-01-11T10:56:32;59.17;;;29.10;;
84168;SDS011;74295;50.146;8.794;2024-01-11T11:06:37;55.93;;;29.43;;
84168;SDS011;74295;50.146;8.794;2024-01-11T11:16:42;57.17;;;28.93;;
84168;SDS011;74295;50.146;8.794;2024-01-11T11:26:46;55.23;;;29.00;;
84168;SDS011;74295;50.146;8.794;2024-01-11T11:36:51;50.73;;;27.20;;
84168;SDS011;74295;50.146;8.794;2024-01-11T11:46:56;49.90;;;26.40;;
84168;SDS011;74295;50.146;8.794;2024-01-11T11:57:21;50.23;;;27.00;;
84168;SDS011;74295;50.146;8.794;2024-01-11T12:07:25;46.97;;;27.43;;
84168;SDS011;74295;50.146;8.794;2024-01-11T12:17:29;45.67;;;25.73;;
84168;SDS011;74295;50.146;8.794;2024-01-11T12:27:32;47.87;;;26.13;;
84168;SDS011;74295;50.146;8.794;2024-01-11T12:37:36;46.73;;;25.13;;
84168;SDS011;74295;50.146;8.794;2024-01-11T12:47:38;45.70;;;24.20;;
84168;SDS011;74295;50.146;8.794;2024-01-11T12:57:43;48.37;;;25.77;;
84168;SDS011;74295;50.146;8.794;2024-01-11T13:07:46;45.40;;;25.17;;
84168;SDS011;74295;50.146;8.794;2024-01-11T13:17:50;51.37;;;27.00;;
84168;SDS011;74295;50.146;8.794;2024-01-11T13:27:52;49.10;;;25.67;;
84168;SDS011;74295;50.146;8.794;2024-01-11T13:37:56;45.20;;;25.43;;
84168;SDS011;74295;50.146;8.794;2024-01-11T13:47:59;45.73;;;24.97;;
84168;SDS011;74295;50.146;8.794;2024-01-11T13:58:03;45.93;;;26.20;;
84168;SDS011;74295;50.146;8.794;2024-01-11T14:08:07;42.63;;;25.33;;
84168;SDS011;74295;50.146;8.794;2024-01-11T14:18:11;41.67;;;23.20;;
84168;SDS011;74295;50.146;8.794;2024-01-11T14:28:14;46.20;;;24.30;;
84168;SDS011;74295;50.146;8.794;2024-01-11T14:38:18;43.07;;;23.33;;
84168;SDS011;74295;50.146;8.794;2024-01-11T14:48:20;44.87;;;23.63;;
84168;SDS011;74295;50.146;8.794;2024-01-11T14:58:26;43.17;;;23.17;;
84168;SDS011;74295;50.146;8.794;2024-01-11T15:08:28;41.70;;;23.93;;
84168;SDS011;74295;50.146;8.794;2024-01-11T15:18:33;40.60;;;23.67;;
84168;SDS011;74295;50.146;8.794;2024-01-11T15:28:36;54.97;;;31.13;;
84168;SDS011;74295;50.146;8.794;2024-01-11T15:38:40;40.97;;;24.83;;
84168;SDS011;74295;50.146;8.794;2024-01-11T15:48:43;47.17;;;23.57;;
84168;SDS011;74295;50.146;8.794;2024-01-11T15:58:47;42.73;;;24.53;;
84168;SDS011;74295;50.146;8.794;2024-01-11T16:08:49;43.77;;;23.23;;
84168;SDS011;74295;50.146;8.794;2024-01-11T16:18:54;41.97;;;24.20;;
84168;SDS011;74295;50.146;8.794;2024-01-11T16:28:56;44.97;;;23.63;;
84168;SDS011;74295;50.146;8.794;2024-01-11T16:39:00;45.30;;;23.30;;
84168;SDS011;74295;50.146;8.794;2024-01-11T16:49:04;37.33;;;22.00;;
84168;SDS011;74295;50.146;8.794;2024-01-11T16:59:08;42.20;;;23.57;;
84168;SDS011;74295;50.146;8.794;2024-01-11T17:09:11;43.03;;;24.83;;
84168;SDS011;74295;50.146;8.794;2024-01-11T17:19:15;45.73;;;23.43;;
84168;SDS011;74295;50.146;8.794;2024-01-11T17:29:17;39.20;;;21.77;;
84168;SDS011;74295;50.146;8.794;2024-01-11T17:39:21;42.47;;;22.17;;
84168;SDS011;74295;50.146;8.794;2024-01-11T17:49:24;37.80;;;22.40;;
84168;SDS011;74295;50.146;8.794;2024-01-11T17:59:28;39.20;;;20.90;;
84168;SDS011;74295;50.146;8.794;2024-01-11T18:09:33;31.73;;;16.13;;
84168;SDS011;74295;50.146;8.794;2024-01-11T18:19:37;28.27;;;15.63;;
84168;SDS011;74295;50.146;8.794;2024-01-11T18:29:40;28.57;;;13.70;;
84168;SDS011;74295;50.146;8.794;2024-01-11T18:39:44;21.03;;;11.63;;
84168;SDS011;74295;50.146;8.794;2024-01-11T18:49:47;20.40;;;10.33;;
84168;SDS011;74295;50.146;8.794;2024-01-11T18:59:51;22.40;;;10.23;;
84168;SDS011;74295;50.146;8.794;2024-01-11T19:09:56;21.50;;;12.60;;
84168;SDS011;74295;50.146;8.794;2024-01-11T19:20:00;21.07;;;12.43;;
84168;SDS011;74295;50.146;8.794;2024-01-11T19:30:03;23.47;;;13.37;;
84168;SDS011;74295;50.146;8.794;2024-01-11T19:40:11;26.13;;;14.53;;
84168;SDS011;74295;50.146;8.794;2024-01-11T19:50:14;24.67;;;13.63;;
84168;SDS011;74295;50.146;8.794;2024-01-11T20:00:18;33.40;;;17.00;;
84168;SDS011;74295;50.146;8.794;2024-01-11T20:10:21;24.53;;;14.17;;
84168;SDS011;74295;50.146;8.794;2024-01-11T20:20:25;18.53;;;12.43;;
84168;SDS011;74295;50.146;8.794;2024-01-11T20:30:27;20.97;;;13.07;;
84168;SDS011;74295;50.146;8.794;2024-01-11T20:40:32;17.87;;;12.30;;
84168;SDS011;74295;50.146;8.794;2024-01-11T20:50:34;20.47;;;11.90;;
84168;SDS011;74295;50.146;8.794;2024-01-11T21:00:38;17.77;;;11.30;;
84168;SDS011;74295;50.146;8.794;2024-01-11T21:10:41;17.80;;;10.83;;
84168;SDS011;74295;50.146;8.794;2024-01-11T21:20:45;18.43;;;11.37;;
84168;SDS011;74295;50.146;8.794;2024-01-11T21:30:48;16.80;;;10.27;;
84168;SDS011;74295;50.146;8.794;2024-01-11T21:40:52;15.77;;;10.37;;
84168;SDS011;74295;50.146;8.794;2024-01-11T21:50:55;15.13;;;9.63;;
84168;SDS011;74295;50.146;8.794;2024-01-11T22:01:00;16.07;;;9.47;;
84168;SDS011;74295;50.146;8.794;2024-01-11T22:11:03;12.97;;;9.10;;
84168;SDS011;74295;50.146;8.794;2024-01-11T22:21:07;14.57;;;9.20;;
84168;SDS011;74295;50.146;8.794;2024-01-11T22:31:10;15.37;;;9.53;;
84168;SDS011;74295;50.146;8.794;2024-01-11T22:41:14;15.73;;;10.33;;
84168;SDS011;74295;50.146;8.794;2024-01-11T22:51:17;18.07;;;11.43;;
84168;SDS011;74295;50.146;8.794;2024-01-11T23:01:21;17.07;;;12.03;;
84168;SDS011;74295;50.146;8.794;2024-01-11T23:11:23;18.47;;;12.17;;
84168;SDS011;74295;50.146;8.794;2024-01-11T23:21:27;17.13;;;10.90;;
84168;SDS011;74295;50.146;8.794;2024-01-11T23:31:30;19.67;;;12.83;;
84168;SDS011;74295;50.146;8.794;2024-01-11T23:41:34;19.67;;;12.87;;
84168;SDS011;74295;50.146;8.794;2024-01-11T23:51:37;19.60;;;12.10;;
